sensor_id;sensor_type;location;lat;lon;timestamp;pressure;altitude;pressure_sealevel;temperature;humidity
54270;BME280;40181;51.560;13.000;2022-08-19T00:01:28;99949.00;;;20.69;96.11
54270;BME280;40181;51.560;13.000;2022-08-19T00:04:02;99948.50;;;20.82;96.01
54270;BME280;40181;51.560;13.000;2022-08-19T00:06:33;99950.72;;;20.70;98.44
54270;BME280;40181;51.560;13.000;2022-08-19T00:09:04;99986.63;;;20.87;96.99
54270;BME280;40181;51.560;13.000;2022-08-19T00:11:34;100010.91;;;20.55;97.51
54270;BME280;40181;51.560;13.000;2022-08-19T00:14:04;100040.31;;;20.78;96.96
54270;BME280;40181;51.560;13.000;2022-08-19T00:16:34;100059.94;;;20.77;98.50
54270;BME280;40181;51.560;13.000;2022-08-19T00:19:06;100063.16;;;20.61;99.87
54270;BME280;40181;51.560;13.000;2022-08-19T00:21:36;100071.59;;;20.74;99.40
54270;BME280;40181;51.560;13.000;2022-08-19T00:24:06;100064.25;;;20.79;98.20
54270;BME280;40181;51.560;13.000;2022-08-19T00:26:36;100038.75;;;20.72;98.47
54270;BME280;40181;51.560;13.000;2022-08-19T00:29:06;100030.66;;;20.73;97.42
54270;BME280;40181;51.560;13.000;2022-08-19T00:31:37;100019.75;;;20.56;97.63
54270;BME280;40181;51.560;13.000;2022-08-19T00:34:09;100013.84;;;20.71;96.68
54270;BME280;40181;51.560;13.000;2022-08-19T00:36:38;100010.06;;;20.77;95.45
54270;BME280;40181;51.560;13.000;2022-08-19T00:39:07;100011.13;;;20.73;95.93
54270;BME280;40181;51.560;13.000;2022-08-19T00:41:36;100014.28;;;20.84;95.34
54270;BME280;40181;51.560;13.000;2022-08-19T00:44:06;100027.94;;;20.75;95.93
54270;BME280;40181;51.560;13.000;2022-08-19T00:46:38;100014.97;;;20.66;97.53
54270;BME280;40181;51.560;13.000;2022-08-19T00:49:11;100013.44;;;20.58;97.01
54270;BME280;40181;51.560;13.000;2022-08-19T00:51:43;100012.63;;;20.56;97.35
54270;BME280;40181;51.560;13.000;2022-08-19T00:54:14;100014.31;;;20.59;97.12
54270;BME280;40181;51.560;13.000;2022-08-19T00:56:44;100004.91;;;20.72;96.42
54270;BME280;40181;51.560;13.000;2022-08-19T00:59:14;100003.22;;;20.46;96.42
54270;BME280;40181;51.560;13.000;2022-08-19T01:01:44;100006.25;;;20.60;95.75
54270;BME280;40181;51.560;13.000;2022-08-19T01:04:16;100004.75;;;20.53;94.84
54270;BME280;40181;51.560;13.000;2022-08-19T01:06:45;100000.09;;;20.58;94.74
54270;BME280;40181;51.560;13.000;2022-08-19T01:09:14;99998.31;;;20.59;95.18
54270;BME280;40181;51.560;13.000;2022-08-19T01:11:43;99987.78;;;20.78;94.20
54270;BME280;40181;51.560;13.000;2022-08-19T01:14:13;99999.13;;;20.61;95.92
54270;BME280;40181;51.560;13.000;2022-08-19T01:16:42;100005.22;;;20.65;95.27
54270;BME280;40181;51.560;13.000;2022-08-19T01:19:12;100008.09;;;20.58;96.34
54270;BME280;40181;51.560;13.000;2022-08-19T01:21:49;100007.75;;;20.68;95.54
54270;BME280;40181;51.560;13.000;2022-08-19T01:24:25;100012.84;;;20.50;96.88
54270;BME280;40181;51.560;13.000;2022-08-19T01:26:54;100012.25;;;20.67;96.14
54270;BME280;40181;51.560;13.000;2022-08-19T01:29:23;100004.16;;;20.45;97.56
54270;BME280;40181;51.560;13.000;2022-08-19T01:31:51;100010.31;;;20.71;96.68
54270;BME280;40181;51.560;13.000;2022-08-19T01:34:20;100014.47;;;20.78;96.06
54270;BME280;40181;51.560;13.000;2022-08-19T01:36:49;100008.16;;;20.81;95.17
54270;BME280;40181;51.560;13.000;2022-08-19T01:39:19;100008.47;;;20.73;95.16
54270;BME280;40181;51.560;13.000;2022-08-19T01:41:52;99991.16;;;20.59;96.03
54270;BME280;40181;51.560;13.000;2022-08-19T01:44:21;99966.03;;;20.65;96.81
54270;BME280;40181;51.560;13.000;2022-08-19T01:46:51;99982.00;;;20.67;96.24
54270;BME280;40181;51.560;13.000;2022-08-19T01:49:22;99983.69;;;20.69;96.60
54270;BME280;40181;51.560;13.000;2022-08-19T01:51:52;99977.91;;;20.58;97.04
54270;BME280;40181;51.560;13.000;2022-08-19T01:54:23;99963.31;;;20.67;96.01
54270;BME280;40181;51.560;13.000;2022-08-19T01:56:55;99967.50;;;20.50;95.88
54270;BME280;40181;51.560;13.000;2022-08-19T01:59:27;99956.81;;;20.74;95.81
54270;BME280;40181;51.560;13.000;2022-08-19T02:01:56;99957.94;;;20.68;95.45
54270;BME280;40181;51.560;13.000;2022-08-19T02:04:25;99962.69;;;20.60;96.21
54270;BME280;40181;51.560;13.000;2022-08-19T02:06:54;99961.19;;;20.53;97.11
54270;BME280;40181;51.560;13.000;2022-08-19T02:09:22;99961.88;;;20.58;95.67
54270;BME280;40181;51.560;13.000;2022-08-19T02:11:51;99964.19;;;20.67;95.40
54270;BME280;40181;51.560;13.000;2022-08-19T02:14:23;99957.97;;;20.67;95.45
54270;BME280;40181;51.560;13.000;2022-08-19T02:16:52;99955.63;;;20.59;95.15
54270;BME280;40181;51.560;13.000;2022-08-19T02:19:21;99947.72;;;20.32;95.72
54270;BME280;40181;51.560;13.000;2022-08-19T02:21:50;99956.53;;;20.34;94.98
54270;BME280;40181;51.560;13.000;2022-08-19T02:24:19;99950.47;;;20.54;93.74
54270;BME280;40181;51.560;13.000;2022-08-19T02:26:47;99943.25;;;20.32;93.25
54270;BME280;40181;51.560;13.000;2022-08-19T02:29:19;99941.53;;;20.55;92.10
54270;BME280;40181;51.560;13.000;2022-08-19T02:31:48;99931.66;;;20.57;91.57
54270;BME280;40181;51.560;13.000;2022-08-19T02:34:17;99933.28;;;20.38;91.97
54270;BME280;40181;51.560;13.000;2022-08-19T02:36:46;99930.78;;;20.33;92.53
54270;BME280;40181;51.560;13.000;2022-08-19T02:39:15;99933.50;;;20.55;92.06
54270;BME280;40181;51.560;13.000;2022-08-19T02:41:41;99928.19;;;20.55;91.81
54270;BME280;40181;51.560;13.000;2022-08-19T02:44:10;99936.63;;;20.43;92.04
54270;BME280;40181;51.560;13.000;2022-08-19T02:46:42;99943.66;;;20.69;92.07
54270;BME280;40181;51.560;13.000;2022-08-19T02:49:12;99944.06;;;20.58;92.57
54270;BME280;40181;51.560;13.000;2022-08-19T02:51:42;99944.63;;;20.67;90.98
54270;BME280;40181;51.560;13.000;2022-08-19T02:54:13;99960.25;;;20.78;90.52
54270;BME280;40181;51.560;13.000;2022-08-19T02:56:42;99959.38;;;20.77;90.90
54270;BME280;40181;51.560;13.000;2022-08-19T02:59:12;99952.69;;;20.65;91.85
54270;BME280;40181;51.560;13.000;2022-08-19T03:01:43;99954.28;;;20.71;90.72
54270;BME280;40181;51.560;13.000;2022-08-19T03:04:13;99951.66;;;20.69;89.55
54270;BME280;40181;51.560;13.000;2022-08-19T03:06:43;99948.81;;;20.74;89.71
54270;BME280;40181;51.560;13.000;2022-08-19T03:09:13;99942.50;;;20.77;89.85
54270;BME280;40181;51.560;13.000;2022-08-19T03:11:43;99937.25;;;20.73;89.67
54270;BME280;40181;51.560;13.000;2022-08-19T03:14:12;99930.53;;;20.63;90.92
54270;BME280;40181;51.560;13.000;2022-08-19T03:16:47;99920.00;;;20.36;93.06
54270;BME280;40181;51.560;13.000;2022-08-19T03:19:18;99924.19;;;20.43;92.43
54270;BME280;40181;51.560;13.000;2022-08-19T03:21:49;99929.97;;;20.55;91.91
54270;BME280;40181;51.560;13.000;2022-08-19T03:24:18;99913.72;;;20.37;93.44
54270;BME280;40181;51.560;13.000;2022-08-19T03:26:49;99913.81;;;20.36;93.22
54270;BME280;40181;51.560;13.000;2022-08-19T03:29:22;99933.44;;;20.57;92.58
54270;BME280;40181;51.560;13.000;2022-08-19T03:31:54;99924.09;;;20.69;91.85
54270;BME280;40181;51.560;13.000;2022-08-19T03:34:24;99941.44;;;20.57;93.58
54270;BME280;40181;51.560;13.000;2022-08-19T03:36:55;99961.75;;;20.61;92.88
54270;BME280;40181;51.560;13.000;2022-08-19T03:39:26;99972.72;;;20.77;92.03
54270;BME280;40181;51.560;13.000;2022-08-19T03:41:55;99985.19;;;20.77;92.24
54270;BME280;40181;51.560;13.000;2022-08-19T03:44:27;99995.97;;;20.73;92.93
54270;BME280;40181;51.560;13.000;2022-08-19T03:47:00;99992.22;;;20.30;95.01
54270;BME280;40181;51.560;13.000;2022-08-19T03:49:30;100002.69;;;20.36;95.35
54270;BME280;40181;51.560;13.000;2022-08-19T03:52:00;99991.84;;;20.41;95.09
54270;BME280;40181;51.560;13.000;2022-08-19T03:54:32;99985.16;;;20.54;95.04
54270;BME280;40181;51.560;13.000;2022-08-19T03:57:03;99981.59;;;20.54;95.02
54270;BME280;40181;51.560;13.000;2022-08-19T03:59:37;99968.97;;;20.59;93.49
54270;BME280;40181;51.560;13.000;2022-08-19T04:02:11;99951.97;;;20.38;94.23
54270;BME280;40181;51.560;13.000;2022-08-19T04:04:40;99947.66;;;20.34;94.41
54270;BME280;40181;51.560;13.000;2022-08-19T04:07:11;99955.09;;;20.49;94.66
54270;BME280;40181;51.560;13.000;2022-08-19T04:09:46;99969.88;;;20.34;95.02
54270;BME280;40181;51.560;13.000;2022-08-19T04:12:17;99978.22;;;19.99;95.92
54270;BME280;40181;51.560;13.000;2022-08-19T04:14:46;99989.53;;;19.79;98.09
54270;BME280;40181;51.560;13.000;2022-08-19T04:17:17;100005.31;;;19.85;98.39
54270;BME280;40181;51.560;13.000;2022-08-19T04:19:47;100020.28;;;19.89;98.22
54270;BME280;40181;51.560;13.000;2022-08-19T04:25:34;100034.34;;;20.22;98.21
54270;BME280;40181;51.560;13.000;2022-08-19T04:28:04;100018.25;;;19.98;98.57
54270;BME280;40181;51.560;13.000;2022-08-19T04:30:38;100007.09;;;20.12;97.55
54270;BME280;40181;51.560;13.000;2022-08-19T04:33:11;100000.56;;;19.95;98.73
54270;BME280;40181;51.560;13.000;2022-08-19T04:35:42;99986.63;;;20.12;98.30
54270;BME280;40181;51.560;13.000;2022-08-19T04:38:13;99966.63;;;20.00;98.94
54270;BME280;40181;51.560;13.000;2022-08-19T04:40:43;99961.22;;;20.02;98.21
54270;BME280;40181;51.560;13.000;2022-08-19T04:43:27;99975.16;;;20.10;98.48
54270;BME280;40181;51.560;13.000;2022-08-19T04:45:56;99992.28;;;20.03;99.25
54270;BME280;40181;51.560;13.000;2022-08-19T04:48:28;100010.91;;;20.04;98.56
54270;BME280;40181;51.560;13.000;2022-08-19T04:50:57;100019.34;;;20.17;97.61
54270;BME280;40181;51.560;13.000;2022-08-19T04:53:28;100011.81;;;20.29;97.83
54270;BME280;40181;51.560;13.000;2022-08-19T04:55:59;100014.63;;;20.26;98.22
54270;BME280;40181;51.560;13.000;2022-08-19T04:58:32;99998.41;;;20.32;97.06
54270;BME280;40181;51.560;13.000;2022-08-19T05:01:01;99998.16;;;20.38;97.30
54270;BME280;40181;51.560;13.000;2022-08-19T05:03:33;99989.16;;;20.17;97.75
54270;BME280;40181;51.560;13.000;2022-08-19T05:06:03;99993.50;;;20.20;97.99
54270;BME280;40181;51.560;13.000;2022-08-19T05:08:35;100000.84;;;20.13;98.28
54270;BME280;40181;51.560;13.000;2022-08-19T05:11:07;100007.72;;;20.20;98.39
54270;BME280;40181;51.560;13.000;2022-08-19T05:13:37;100019.31;;;20.19;98.10
54270;BME280;40181;51.560;13.000;2022-08-19T05:16:07;100031.59;;;20.49;97.10
54270;BME280;40181;51.560;13.000;2022-08-19T05:18:39;100035.13;;;20.49;96.17
54270;BME280;40181;51.560;13.000;2022-08-19T05:21:21;100041.75;;;20.37;96.82
54270;BME280;40181;51.560;13.000;2022-08-19T05:24:03;100038.78;;;20.21;98.77
54270;BME280;40181;51.560;13.000;2022-08-19T05:26:33;100036.22;;;20.43;97.70
54270;BME280;40181;51.560;13.000;2022-08-19T05:29:03;100035.94;;;20.26;98.34
54270;BME280;40181;51.560;13.000;2022-08-19T05:31:32;100039.06;;;20.39;97.00
54270;BME280;40181;51.560;13.000;2022-08-19T05:34:04;100043.25;;;20.46;97.97
54270;BME280;40181;51.560;13.000;2022-08-19T05:36:35;100045.03;;;20.45;98.16
54270;BME280;40181;51.560;13.000;2022-08-19T05:39:06;100054.13;;;20.40;97.70
54270;BME280;40181;51.560;13.000;2022-08-19T05:41:40;100057.28;;;20.51;97.74
54270;BME280;40181;51.560;13.000;2022-08-19T05:44:10;100056.31;;;20.54;96.91
54270;BME280;40181;51.560;13.000;2022-08-19T05:46:39;100058.66;;;20.38;97.48
54270;BME280;40181;51.560;13.000;2022-08-19T05:49:14;100068.00;;;20.24;98.97
54270;BME280;40181;51.560;13.000;2022-08-19T05:51:44;100065.09;;;20.56;98.06
54270;BME280;40181;51.560;13.000;2022-08-19T05:54:12;100067.09;;;20.51;97.34
54270;BME280;40181;51.560;13.000;2022-08-19T05:56:42;100076.34;;;20.40;97.76
54270;BME280;40181;51.560;13.000;2022-08-19T05:59:13;100076.63;;;20.58;97.82
54270;BME280;40181;51.560;13.000;2022-08-19T06:01:45;100081.25;;;20.53;97.78
54270;BME280;40181;51.560;13.000;2022-08-19T06:04:18;100081.84;;;20.61;96.87
54270;BME280;40181;51.560;13.000;2022-08-19T06:06:48;100085.75;;;20.76;95.88
54270;BME280;40181;51.560;13.000;2022-08-19T06:09:19;100080.94;;;20.60;97.13
54270;BME280;40181;51.560;13.000;2022-08-19T06:11:49;100077.81;;;20.49;97.95
54270;BME280;40181;51.560;13.000;2022-08-19T06:14:24;100097.69;;;20.66;96.94
54270;BME280;40181;51.560;13.000;2022-08-19T06:16:54;100094.28;;;20.60;96.92
54270;BME280;40181;51.560;13.000;2022-08-19T06:19:27;100094.88;;;20.45;97.80
54270;BME280;40181;51.560;13.000;2022-08-19T06:21:58;100106.88;;;20.57;97.69
54270;BME280;40181;51.560;13.000;2022-08-19T06:24:28;100108.28;;;20.42;98.61
54270;BME280;40181;51.560;13.000;2022-08-19T06:26:57;100104.81;;;20.40;98.96
54270;BME280;40181;51.560;13.000;2022-08-19T06:29:27;100103.19;;;20.36;100.00
54270;BME280;40181;51.560;13.000;2022-08-19T06:31:58;100111.47;;;20.53;99.10
54270;BME280;40181;51.560;13.000;2022-08-19T06:34:31;100104.75;;;20.67;98.20
54270;BME280;40181;51.560;13.000;2022-08-19T06:37:01;100112.44;;;20.76;97.39
54270;BME280;40181;51.560;13.000;2022-08-19T06:39:31;100110.38;;;20.59;97.97
54270;BME280;40181;51.560;13.000;2022-08-19T06:42:02;100107.28;;;20.46;98.32
54270;BME280;40181;51.560;13.000;2022-08-19T06:44:35;100119.03;;;20.66;97.71
54270;BME280;40181;51.560;13.000;2022-08-19T06:47:06;100126.56;;;20.54;97.37
54270;BME280;40181;51.560;13.000;2022-08-19T06:49:38;100134.16;;;20.65;97.43
54270;BME280;40181;51.560;13.000;2022-08-19T06:52:07;100151.09;;;20.64;97.46
54270;BME280;40181;51.560;13.000;2022-08-19T06:54:39;100151.19;;;20.63;97.21
54270;BME280;40181;51.560;13.000;2022-08-19T06:57:08;100151.88;;;20.68;96.99
54270;BME280;40181;51.560;13.000;2022-08-19T06:59:40;100167.78;;;20.71;96.43
54270;BME280;40181;51.560;13.000;2022-08-19T07:02:09;100172.13;;;20.73;96.89
54270;BME280;40181;51.560;13.000;2022-08-19T07:04:40;100173.13;;;20.71;97.03
54270;BME280;40181;51.560;13.000;2022-08-19T07:07:10;100180.53;;;20.36;98.27
54270;BME280;40181;51.560;13.000;2022-08-19T07:09:42;100169.69;;;20.67;97.27
54270;BME280;40181;51.560;13.000;2022-08-19T07:12:12;100174.19;;;20.65;97.55
54270;BME280;40181;51.560;13.000;2022-08-19T07:14:42;100178.88;;;20.58;97.26
54270;BME280;40181;51.560;13.000;2022-08-19T07:17:12;100176.34;;;20.81;96.22
54270;BME280;40181;51.560;13.000;2022-08-19T07:19:43;100168.81;;;20.67;96.31
54270;BME280;40181;51.560;13.000;2022-08-19T07:22:12;100180.72;;;20.83;96.21
54270;BME280;40181;51.560;13.000;2022-08-19T07:24:42;100179.44;;;20.68;96.26
54270;BME280;40181;51.560;13.000;2022-08-19T07:27:13;100178.91;;;20.84;95.85
54270;BME280;40181;51.560;13.000;2022-08-19T07:29:42;100172.09;;;20.75;96.73
54270;BME280;40181;51.560;13.000;2022-08-19T07:32:11;100176.00;;;20.92;95.58
54270;BME280;40181;51.560;13.000;2022-08-19T07:34:40;100185.47;;;20.73;96.22
54270;BME280;40181;51.560;13.000;2022-08-19T07:37:11;100181.50;;;20.87;95.90
54270;BME280;40181;51.560;13.000;2022-08-19T07:39:40;100191.84;;;20.69;96.15
54270;BME280;40181;51.560;13.000;2022-08-19T07:42:10;100189.38;;;20.90;95.71
54270;BME280;40181;51.560;13.000;2022-08-19T07:44:39;100199.63;;;20.50;98.00
54270;BME280;40181;51.560;13.000;2022-08-19T07:47:09;100193.16;;;20.57;97.79
54270;BME280;40181;51.560;13.000;2022-08-19T07:49:40;100193.16;;;20.57;97.36
54270;BME280;40181;51.560;13.000;2022-08-19T07:52:12;100199.72;;;20.47;98.00
54270;BME280;40181;51.560;13.000;2022-08-19T07:54:41;100204.13;;;20.48;97.97
54270;BME280;40181;51.560;13.000;2022-08-19T07:57:10;100199.97;;;20.39;99.02
54270;BME280;40181;51.560;13.000;2022-08-19T07:59:39;100210.78;;;20.62;98.05
54270;BME280;40181;51.560;13.000;2022-08-19T08:02:08;100210.09;;;20.56;97.49
54270;BME280;40181;51.560;13.000;2022-08-19T08:04:37;100208.03;;;20.65;97.61
54270;BME280;40181;51.560;13.000;2022-08-19T08:07:20;100201.63;;;20.43;98.87
54270;BME280;40181;51.560;13.000;2022-08-19T08:10:03;100203.06;;;20.54;98.26
54270;BME280;40181;51.560;13.000;2022-08-19T08:12:37;100202.19;;;20.53;98.61
54270;BME280;40181;51.560;13.000;2022-08-19T08:15:09;100204.44;;;20.39;99.13
54270;BME280;40181;51.560;13.000;2022-08-19T08:17:41;100203.50;;;20.40;98.92
54270;BME280;40181;51.560;13.000;2022-08-19T08:20:10;100208.28;;;20.57;98.28
54270;BME280;40181;51.560;13.000;2022-08-19T08:22:45;100205.03;;;20.49;98.38
54270;BME280;40181;51.560;13.000;2022-08-19T08:25:29;100216.91;;;20.38;99.14
54270;BME280;40181;51.560;13.000;2022-08-19T08:28:00;100221.41;;;20.36;98.72
54270;BME280;40181;51.560;13.000;2022-08-19T08:30:30;100212.72;;;20.31;99.32
54270;BME280;40181;51.560;13.000;2022-08-19T08:33:01;100215.53;;;20.53;98.37
54270;BME280;40181;51.560;13.000;2022-08-19T08:35:30;100220.75;;;20.29;99.96
54270;BME280;40181;51.560;13.000;2022-08-19T08:38:02;100210.59;;;20.41;99.87
54270;BME280;40181;51.560;13.000;2022-08-19T08:40:33;100207.41;;;20.56;99.14
54270;BME280;40181;51.560;13.000;2022-08-19T08:43:09;100205.03;;;20.49;98.44
54270;BME280;40181;51.560;13.000;2022-08-19T08:45:47;100216.25;;;20.58;99.39
54270;BME280;40181;51.560;13.000;2022-08-19T08:48:20;100209.94;;;20.61;99.56
54270;BME280;40181;51.560;13.000;2022-08-19T08:50:55;100196.28;;;20.43;99.86
54270;BME280;40181;51.560;13.000;2022-08-19T08:53:27;100208.03;;;20.65;99.40
54270;BME280;40181;51.560;13.000;2022-08-19T08:55:57;100214.31;;;20.64;99.75
54270;BME280;40181;51.560;13.000;2022-08-19T08:58:29;100216.44;;;20.52;100.00
54270;BME280;40181;51.560;13.000;2022-08-19T09:01:07;100213.69;;;20.55;99.93
54270;BME280;40181;51.560;13.000;2022-08-19T09:03:41;100212.13;;;20.48;100.00
54270;BME280;40181;51.560;13.000;2022-08-19T09:06:12;100203.50;;;20.67;99.23
54270;BME280;40181;51.560;13.000;2022-08-19T09:08:49;100201.50;;;20.73;98.89
54270;BME280;40181;51.560;13.000;2022-08-19T09:11:25;100200.97;;;20.64;100.00
54270;BME280;40181;51.560;13.000;2022-08-19T09:14:08;100199.72;;;20.74;99.51
54270;BME280;40181;51.560;13.000;2022-08-19T09:16:43;100206.06;;;20.70;99.62
54270;BME280;40181;51.560;13.000;2022-08-19T09:19:13;100216.38;;;20.82;98.76
54270;BME280;40181;51.560;13.000;2022-08-19T09:21:42;100215.09;;;20.66;99.28
54270;BME280;40181;51.560;13.000;2022-08-19T09:24:13;100216.66;;;20.73;98.65
54270;BME280;40181;51.560;13.000;2022-08-19T09:26:42;100216.19;;;20.87;97.31
54270;BME280;40181;51.560;13.000;2022-08-19T09:29:11;100222.41;;;20.87;98.37
54270;BME280;40181;51.560;13.000;2022-08-19T09:31:40;100221.41;;;20.90;98.18
54270;BME280;40181;51.560;13.000;2022-08-19T09:34:09;100208.41;;;20.79;97.63
54270;BME280;40181;51.560;13.000;2022-08-19T09:36:38;100211.91;;;20.81;96.94
54270;BME280;40181;51.560;13.000;2022-08-19T09:39:07;100213.09;;;20.99;96.26
54270;BME280;40181;51.560;13.000;2022-08-19T09:41:39;100214.81;;;21.00;96.06
54270;BME280;40181;51.560;13.000;2022-08-19T09:44:07;100211.25;;;20.74;95.93
54270;BME280;40181;51.560;13.000;2022-08-19T09:46:37;100208.53;;;20.76;96.11
54270;BME280;40181;51.560;13.000;2022-08-19T09:49:06;100203.47;;;20.95;95.28
54270;BME280;40181;51.560;13.000;2022-08-19T09:51:35;100203.16;;;21.03;94.89
54270;BME280;40181;51.560;13.000;2022-08-19T09:54:04;100205.69;;;20.81;95.39
54270;BME280;40181;51.560;13.000;2022-08-19T09:56:33;100213.28;;;20.93;94.28
54270;BME280;40181;51.560;13.000;2022-08-19T09:59:04;100216.06;;;21.15;93.80
54270;BME280;40181;51.560;13.000;2022-08-19T10:01:34;100215.00;;;20.96;95.77
54270;BME280;40181;51.560;13.000;2022-08-19T10:04:03;100209.94;;;20.88;95.79
54270;BME280;40181;51.560;13.000;2022-08-19T10:06:33;100211.47;;;20.95;96.13
54270;BME280;40181;51.560;13.000;2022-08-19T10:09:05;100212.91;;;20.79;96.55
54270;BME280;40181;51.560;13.000;2022-08-19T10:11:35;100206.22;;;20.92;96.04
54270;BME280;40181;51.560;13.000;2022-08-19T10:14:07;100210.31;;;21.03;95.35
54270;BME280;40181;51.560;13.000;2022-08-19T10:16:36;100202.03;;;20.85;95.43
54270;BME280;40181;51.560;13.000;2022-08-19T10:19:07;100199.38;;;20.85;94.60
54270;BME280;40181;51.560;13.000;2022-08-19T10:21:36;100197.72;;;21.06;93.53
54270;BME280;40181;51.560;13.000;2022-08-19T10:24:05;100179.91;;;21.07;92.65
54270;BME280;40181;51.560;13.000;2022-08-19T10:26:35;100191.19;;;21.15;92.21
54270;BME280;40181;51.560;13.000;2022-08-19T10:29:09;100196.47;;;20.91;92.06
54270;BME280;40181;51.560;13.000;2022-08-19T10:31:41;100196.75;;;20.82;92.92
54270;BME280;40181;51.560;13.000;2022-08-19T10:34:09;100200.13;;;21.14;91.93
54270;BME280;40181;51.560;13.000;2022-08-19T10:36:38;100193.56;;;21.23;90.79
54270;BME280;40181;51.560;13.000;2022-08-19T10:39:08;100197.06;;;21.25;90.68
54270;BME280;40181;51.560;13.000;2022-08-19T10:41:38;100205.97;;;21.24;90.38
54270;BME280;40181;51.560;13.000;2022-08-19T10:44:11;100205.63;;;21.33;90.52
54270;BME280;40181;51.560;13.000;2022-08-19T10:46:43;100208.53;;;21.51;89.49
54270;BME280;40181;51.560;13.000;2022-08-19T10:49:13;100223.91;;;21.46;89.70
54270;BME280;40181;51.560;13.000;2022-08-19T10:51:44;100223.72;;;21.50;89.23
54270;BME280;40181;51.560;13.000;2022-08-19T10:54:25;100237.06;;;21.26;89.68
54270;BME280;40181;51.560;13.000;2022-08-19T10:57:07;100239.91;;;21.22;89.41
54270;BME280;40181;51.560;13.000;2022-08-19T10:59:39;100244.69;;;21.37;88.60
54270;BME280;40181;51.560;13.000;2022-08-19T11:02:08;100236.47;;;21.18;88.61
54270;BME280;40181;51.560;13.000;2022-08-19T11:04:38;100244.63;;;21.13;89.85
54270;BME280;40181;51.560;13.000;2022-08-19T11:07:07;100256.41;;;20.82;91.13
54270;BME280;40181;51.560;13.000;2022-08-19T11:09:37;100249.63;;;20.99;90.17
54270;BME280;40181;51.560;13.000;2022-08-19T11:12:08;100237.88;;;21.03;90.20
54270;BME280;40181;51.560;13.000;2022-08-19T11:14:40;100236.69;;;21.12;90.28
54270;BME280;40181;51.560;13.000;2022-08-19T11:17:09;100240.56;;;21.03;90.44
54270;BME280;40181;51.560;13.000;2022-08-19T11:19:39;100247.25;;;21.15;89.43
54270;BME280;40181;51.560;13.000;2022-08-19T11:22:08;100246.00;;;21.25;89.26
54270;BME280;40181;51.560;13.000;2022-08-19T11:24:37;100243.25;;;21.01;90.01
54270;BME280;40181;51.560;13.000;2022-08-19T11:27:06;100261.59;;;21.12;89.60
54270;BME280;40181;51.560;13.000;2022-08-19T11:29:39;100246.44;;;21.13;89.97
54270;BME280;40181;51.560;13.000;2022-08-19T11:32:09;100255.13;;;21.20;89.21
54270;BME280;40181;51.560;13.000;2022-08-19T11:34:39;100268.31;;;21.24;88.17
54270;BME280;40181;51.560;13.000;2022-08-19T11:37:08;100267.63;;;21.43;87.63
54270;BME280;40181;51.560;13.000;2022-08-19T11:39:37;100273.81;;;21.20;88.76
54270;BME280;40181;51.560;13.000;2022-08-19T11:42:06;100292.22;;;21.27;88.33
54270;BME280;40181;51.560;13.000;2022-08-19T11:44:50;100292.78;;;21.37;87.76
54270;BME280;40181;51.560;13.000;2022-08-19T11:47:19;100294.13;;;21.49;87.77
54270;BME280;40181;51.560;13.000;2022-08-19T11:49:48;100289.97;;;21.40;88.41
54270;BME280;40181;51.560;13.000;2022-08-19T11:52:18;100291.53;;;21.22;88.78
54270;BME280;40181;51.560;13.000;2022-08-19T11:54:46;100295.75;;;21.30;88.23
54270;BME280;40181;51.560;13.000;2022-08-19T11:57:15;100300.19;;;21.29;88.63
54270;BME280;40181;51.560;13.000;2022-08-19T11:59:50;100297.31;;;21.35;87.73
54270;BME280;40181;51.560;13.000;2022-08-19T12:02:19;100297.41;;;21.32;88.09
54270;BME280;40181;51.560;13.000;2022-08-19T12:04:48;100300.06;;;21.32;87.52
54270;BME280;40181;51.560;13.000;2022-08-19T12:07:17;100301.84;;;21.06;87.90
54270;BME280;40181;51.560;13.000;2022-08-19T12:09:46;100293.22;;;21.25;86.40
54270;BME280;40181;51.560;13.000;2022-08-19T12:12:15;100295.91;;;21.25;87.02
54270;BME280;40181;51.560;13.000;2022-08-19T12:14:45;100286.78;;;21.31;86.82
54270;BME280;40181;51.560;13.000;2022-08-19T12:17:18;100289.72;;;21.23;87.38
54270;BME280;40181;51.560;13.000;2022-08-19T12:19:47;100287.56;;;21.34;86.64
54270;BME280;40181;51.560;13.000;2022-08-19T12:22:16;100278.88;;;21.27;86.81
54270;BME280;40181;51.560;13.000;2022-08-19T12:24:45;100264.41;;;21.33;86.82
54270;BME280;40181;51.560;13.000;2022-08-19T12:27:15;100255.03;;;21.47;86.54
54270;BME280;40181;51.560;13.000;2022-08-19T12:29:44;100247.94;;;21.46;87.18
54270;BME280;40181;51.560;13.000;2022-08-19T12:32:14;100257.13;;;21.38;87.66
54270;BME280;40181;51.560;13.000;2022-08-19T12:34:46;100245.19;;;21.47;86.97
54270;BME280;40181;51.560;13.000;2022-08-19T12:37:15;100252.19;;;21.51;86.47
54270;BME280;40181;51.560;13.000;2022-08-19T12:39:44;100256.91;;;21.68;86.28
54270;BME280;40181;51.560;13.000;2022-08-19T12:42:13;100268.00;;;21.32;87.71
54270;BME280;40181;51.560;13.000;2022-08-19T12:44:43;100261.84;;;21.30;87.48
54270;BME280;40181;51.560;13.000;2022-08-19T12:47:12;100263.38;;;21.37;87.59
54270;BME280;40181;51.560;13.000;2022-08-19T12:49:44;100261.22;;;21.47;87.02
54270;BME280;40181;51.560;13.000;2022-08-19T12:52:13;100281.50;;;21.29;87.52
54270;BME280;40181;51.560;13.000;2022-08-19T12:54:46;100285.50;;;21.15;88.25
54270;BME280;40181;51.560;13.000;2022-08-19T12:57:15;100282.97;;;21.12;87.89
54270;BME280;40181;51.560;13.000;2022-08-19T12:59:44;100289.13;;;21.40;86.74
54270;BME280;40181;51.560;13.000;2022-08-19T13:02:13;100286.41;;;21.16;87.30
54270;BME280;40181;51.560;13.000;2022-08-19T13:04:45;100290.84;;;21.15;86.98